KMKS

Berkeley County Airport

Moncks Corner, South Carolina, USA
METAR KMKS 200715Z AUTO 00000KT 3/4SM BR OVC003 16/16 A3040 RMK AO2
Observed Flight Rules
Feb-20 @ 07:15 UTC (20 minutes ago) Instrument Flight Rules
Wind Visibility Clouds Conditions
Calm 3/4 miles
  • Overcast at 300' AGL
  • Mist
Temperatures Readings
Current 16°C / 61°F
Dewpoint 16°C / 61°F
Humidity 100%
Altimeter 30.4" Hg
Pressure 1029 hPa
Elevation 23
METAR KMKS 200715Z AUTO 00000KT 3/4SM BR OVC003 16/16 A3040 RMK AO2
Observed Flight Rules
Feb-20 @ 07:15 UTC
(20 minutes ago)
LIFR
Wind Visibility
Calm 3/4 miles
Clouds
  • Overcast at 300' AGL
Conditions
  • Mist
Temperature Dewpoint
16°C / 61°F 16°C / 61°F
Humidity Altimeter Pressure
100% 30.4" Hg 1029 hPa